Time;durP1;ratioP1;P1;durP2;ratioP2;P2;SDS_P1;SDS_P2;PMS_P1;PMS_P2;Temp;Humidity;BMP_temperature;BMP_pressure;BME280_temperature;BME280_humidity;BME280_pressure;Samples;Min_cycle;Max_cycle;Signal;HPM_P1;HPM_P2
2021/04/12 00:01:15;;;;;;;3.95;3.00;;;8.30;97.80;;;;;;5084300;28;20127;-76
2021/04/12 00:03:48;;;;;;;3.83;2.70;;;8.20;97.50;;;;;;5074004;28;20076;-76
2021/04/12 00:06:20;;;;;;;3.63;2.50;;;8.10;97.80;;;;;;5052119;28;627966;-78
2021/04/12 00:08:53;;;;;;;4.30;2.95;;;8.00;98.20;;;;;;5075987;28;20083;-76
2021/04/12 00:11:30;;;;;;;3.92;2.72;;;8.00;98.60;;;;;;5074720;28;20095;-77
2021/04/12 00:14:04;;;;;;;3.80;2.75;;;8.00;98.40;;;;;;5074856;28;20091;-75
2021/04/12 00:16:37;;;;;;;3.67;2.70;;;8.00;97.90;;;;;;5075217;28;20122;-77
2021/04/12 00:19:09;;;;;;;3.65;2.53;;;7.90;98.00;;;;;;5080933;28;20075;-77
2021/04/12 00:21:41;;;;;;;3.38;2.40;;;7.90;98.40;;;;;;5090586;28;20083;-76
2021/04/12 00:24:16;;;;;;;3.83;2.53;;;7.80;98.10;;;;;;5074903;28;20135;-75
2021/04/12 00:26:48;;;;;;;3.53;2.47;;;7.80;98.00;;;;;;5074770;28;20162;-76
2021/04/12 00:29:22;;;;;;;3.15;2.00;;;7.70;98.00;;;;;;5084462;28;20075;-76
2021/04/12 00:31:55;;;;;;;3.38;2.10;;;7.60;98.10;;;;;;5093690;28;20052;-77
2021/04/12 00:34:28;;;;;;;3.28;1.75;;;7.60;98.10;;;;;;5093969;28;20048;-76
2021/04/12 00:37:01;;;;;;;2.80;1.77;;;7.50;98.00;;;;;;5092221;28;20127;-76
2021/04/12 00:39:36;;;;;;;2.60;1.42;;;7.30;98.30;;;;;;5084887;28;20080;-77
2021/04/12 00:42:37;;;;;;;2.65;1.45;;;7.30;98.50;;;;;;5074371;28;20052;-77
2021/04/12 00:45:28;;;;;;;2.40;1.42;;;7.20;98.60;;;;;;5074106;28;20582;-76
2021/04/12 00:48:16;;;;;;;2.63;1.40;;;7.20;98.20;;;;;;5074201;28;20114;-77
2021/04/12 00:50:51;;;;;;;2.20;1.20;;;7.10;97.60;;;;;;5090021;28;20062;-77
2021/04/12 00:53:35;;;;;;;2.88;1.50;;;6.90;98.10;;;;;;5094176;28;20547;-76
2021/04/12 00:56:06;;;;;;;2.35;1.30;;;6.80;98.80;;;;;;5094028;28;20050;-76
2021/04/12 00:58:48;;;;;;;2.25;1.33;;;6.90;99.00;;;;;;5094118;28;20083;-76
2021/04/12 01:01:35;;;;;;;2.28;0.90;;;6.80;98.50;;;;;;5075914;28;20135;-77
2021/04/12 01:04:33;;;;;;;2.58;1.30;;;6.70;98.10;;;;;;5073816;28;20082;-78
2021/04/12 01:07:35;;;;;;;2.10;1.10;;;6.60;98.40;;;;;;5073667;28;20090;-77
2021/04/12 01:10:35;;;;;;;3.25;1.40;;;6.70;98.00;;;;;;5056890;28;20139;-77
2021/04/12 01:13:32;;;;;;;2.20;1.10;;;6.50;98.40;;;;;;5070910;28;20131;-77
2021/04/12 01:16:43;;;;;;;2.55;1.30;;;6.40;97.90;;;;;;5089748;28;20071;-77
2021/04/12 01:20:13;;;;;;;2.67;1.45;;;6.30;98.50;;;;;;5076564;28;20407;-77
2021/04/12 01:23:30;;;;;;;2.67;1.42;;;6.20;98.80;;;;;;5073446;28;20080;-78
2021/04/12 01:26:51;;;;;;;2.90;1.40;;;6.10;99.10;;;;;;5084271;28;20127;-77
2021/04/12 01:30:34;;;;;;;2.60;1.40;;;6.00;99.00;;;;;;5074975;28;20563;-77
2021/04/12 01:33:29;;;;;;;;;;;6.00;99.30;;;;;;5060635;28;20155;-77
2021/04/12 01:36:24;;;;;;;2.67;1.55;;;6.00;99.30;;;;;;5076642;28;19967;-77
2021/04/12 01:38:59;;;;;;;2.63;1.60;;;6.00;99.60;;;;;;5073359;28;20113;-77
2021/04/12 01:41:35;;;;;;;3.55;2.10;;;6.10;99.20;;;;;;5073277;28;20132;-77
2021/04/12 01:44:29;;;;;;;3.10;1.90;;;6.00;98.90;;;;;;5073063;28;20087;-77
2021/04/12 01:47:22;;;;;;;3.00;1.80;;;5.90;99.50;;;;;;5072935;28;20083;-78
2021/04/12 01:50:18;;;;;;;3.05;1.70;;;5.80;99.80;;;;;;5073234;28;20128;-77
2021/04/12 01:53:16;;;;;;;3.05;1.67;;;5.80;99.80;;;;;;5073100;28;20099;-79
2021/04/12 01:56:00;;;;;;;3.00;1.80;;;5.70;99.90;;;;;;5075626;28;20147;-78
2021/04/12 01:58:43;;;;;;;2.90;1.67;;;5.80;99.60;;;;;;5076671;28;20144;-77
2021/04/12 02:01:39;;;;;;;2.90;1.70;;;5.70;99.60;;;;;;5093284;28;20128;-78
2021/04/12 02:04:20;;;;;;;3.10;1.90;;;5.60;99.90;;;;;;5091520;28;20146;-78
2021/04/12 02:07:10;;;;;;;3.42;1.92;;;5.60;99.90;;;;;;5091439;28;20087;-77
2021/04/12 02:09:53;;;;;;;3.15;2.13;;;5.50;99.90;;;;;;5093308;28;20051;-77
2021/04/12 02:12:36;;;;;;;3.30;2.00;;;5.50;99.90;;;;;;5091384;28;20072;-77
2021/04/12 02:15:18;;;;;;;3.42;2.00;;;5.60;99.90;;;;;;5084021;28;20072;-78
2021/04/12 02:18:00;;;;;;;3.25;1.92;;;5.60;99.90;;;;;;5072753;28;20482;-77
2021/04/12 02:20:40;;;;;;;3.58;2.33;;;5.60;99.80;;;;;;5072993;28;20056;-77
2021/04/12 02:23:37;;;;;;;3.35;2.20;;;5.60;99.90;;;;;;5072782;28;20123;-77
2021/04/12 02:26:27;;;;;;;3.28;2.00;;;5.50;99.90;;;;;;5084733;28;20056;-78
2021/04/12 02:29:18;;;;;;;3.08;1.80;;;5.50;99.90;;;;;;5080221;28;20045;-78
2021/04/12 02:31:52;;;;;;;3.10;1.70;;;5.50;99.80;;;;;;5073679;28;20524;-79
2021/04/12 02:34:33;;;;;;;3.25;1.88;;;5.40;99.90;;;;;;5072494;28;20494;-77
2021/04/12 02:37:27;;;;;;;3.55;2.28;;;5.50;99.90;;;;;;5084276;28;20123;-77
2021/04/12 02:40:12;;;;;;;3.38;2.05;;;5.50;99.80;;;;;;5092765;28;20140;-77
2021/04/12 02:42:50;;;;;;;3.90;2.47;;;5.40;99.30;;;;;;5092719;28;20122;-77
2021/04/12 02:45:29;;;;;;;3.80;2.53;;;5.30;99.90;;;;;;5088807;28;20465;-78
2021/04/12 02:48:19;;;;;;;3.35;2.10;;;5.30;99.90;;;;;;5072541;28;20098;-77
2021/04/12 02:51:05;;;;;;;3.75;2.30;;;5.30;99.90;;;;;;5072471;28;20088;-76
2021/04/12 02:54:06;;;;;;;4.00;2.60;;;5.40;99.90;;;;;;5072657;28;20410;-76
2021/04/12 02:56:42;;;;;;;4.32;2.67;;;5.40;99.90;;;;;;5083487;28;20048;-76
2021/04/12 02:59:47;;;;;;;4.50;2.88;;;5.50;99.90;;;;;;5093105;28;20130;-76
2021/04/12 03:02:51;;;;;;;3.90;2.70;;;5.50;99.80;;;;;;5094249;28;20147;-75
2021/04/12 03:05:48;;;;;;;4.20;2.80;;;5.60;99.40;;;;;;5031853;28;20197;-77
2021/04/12 03:08:54;;;;;;;4.22;2.83;;;5.50;99.80;;;;;;5073104;28;20529;-78
2021/04/12 03:12:00;;;;;;;4.35;2.50;;;5.60;99.40;;;;;;5073352;28;20167;-76
2021/04/12 03:14:54;;;;;;;4.40;2.60;;;5.50;99.70;;;;;;5073520;28;20131;-77
2021/04/12 03:17:42;;;;;;;4.95;3.13;;;5.50;99.90;;;;;;5085121;28;20044;-77
2021/04/12 03:20:46;;;;;;;4.10;2.60;;;5.50;99.40;;;;;;5093601;28;20143;-77
2021/04/12 03:23:42;;;;;;;5.72;2.90;;;5.40;99.80;;;;;;5093500;28;20088;-78
2021/04/12 03:26:28;;;;;;;4.38;3.15;;;5.40;99.10;;;;;;5090217;28;20109;-77
2021/04/12 03:29:09;;;;;;;5.07;2.92;;;5.30;99.50;;;;;;5073268;28;20182;-77
2021/04/12 03:32:14;;;;;;;5.28;3.50;;;5.30;99.90;;;;;;5092259;28;20140;-78
2021/04/12 03:34:56;;;;;;;5.35;3.05;;;5.20;99.60;;;;;;5093361;28;20050;-77
2021/04/12 03:37:57;;;;;;;4.03;2.75;;;5.20;99.90;;;;;;5080538;28;20124;-78
2021/04/12 03:40:27;;;;;;;4.43;3.03;;;5.20;99.90;;;;;;5077637;28;20078;-76
2021/04/12 03:43:34;;;;;;;4.28;3.05;;;5.20;99.90;;;;;;5093021;28;20090;-77
2021/04/12 03:46:33;;;;;;;4.85;3.10;;;5.30;99.90;;;;;;5092603;28;20044;-78
2021/04/12 03:49:44;;;;;;;4.55;3.20;;;5.30;99.90;;;;;;5072791;28;20051;-77
2021/04/12 03:52:59;;;;;;;6.13;3.72;;;5.50;99.90;;;;;;5072725;28;20048;-77
2021/04/12 03:56:04;;;;;;;4.50;2.92;;;5.60;98.80;;;;;;5074010;28;20060;-78
2021/04/12 03:58:56;;;;;;;4.72;3.17;;;5.50;99.70;;;;;;5072678;28;20135;-77
2021/04/12 04:02:11;;;;;;;5.40;3.58;;;5.40;99.10;;;;;;5073630;28;20044;-78
2021/04/12 04:05:02;;;;;;;5.10;3.45;;;5.40;99.40;;;;;;5077373;28;20441;-78
2021/04/12 04:07:53;;;;;;;5.40;3.60;;;5.30;99.40;;;;;;5086529;28;20052;-79
2021/04/12 04:10:58;;;;;;;5.15;3.53;;;5.30;99.10;;;;;;5076407;28;20052;-77
2021/04/12 04:13:42;;;;;;;5.28;3.35;;;5.20;99.80;;;;;;5070253;28;20080;-80
2021/04/12 04:16:22;;;;;;;;;;;5.20;99.90;;;;;;5076090;28;20131;-79
2021/04/12 04:19:00;;;;;;;5.38;3.72;;;5.20;99.70;;;;;;5095532;28;19963;-80
2021/04/12 04:22:14;;;;;;;5.38;3.45;;;5.20;99.90;;;;;;5076332;28;20445;-77
2021/04/12 04:25:01;;;;;;;;;;;5.10;99.90;;;;;;5076740;28;20083;-79
2021/04/12 04:27:57;;;;;;;5.30;3.67;;;5.10;99.90;;;;;;5094287;28;19956;-78
2021/04/12 04:31:11;;;;;;;5.88;3.75;;;5.20;99.90;;;;;;5078252;28;20459;-78
2021/04/12 04:34:03;;;;;;;4.70;3.28;;;5.20;99.80;;;;;;5087840;28;20440;-79
2021/04/12 04:36:40;;;;;;;5.88;3.60;;;5.20;99.90;;;;;;5094458;28;20091;-77
2021/04/12 04:39:41;;;;;;;4.53;3.40;;;5.20;99.90;;;;;;5094301;28;20535;-77
2021/04/12 04:42:49;;;;;;;6.63;4.18;;;5.30;99.90;;;;;;5094427;28;20083;-78
2021/04/12 04:45:31;;;;;;;5.63;3.65;;;5.30;99.30;;;;;;5091041;28;20127;-77
2021/04/12 04:48:46;;;;;;;5.90;3.97;;;5.30;99.90;;;;;;5094412;28;20083;-78
2021/04/12 04:51:54;;;;;;;6.10;4.32;;;5.30;99.90;;;;;;5039394;28;20131;-77
2021/04/12 04:54:43;;;;;;;6.28;4.20;;;5.30;99.90;;;;;;5093278;28;20127;-78
2021/04/12 04:57:34;;;;;;;7.10;4.05;;;5.30;99.40;;;;;;5094005;28;20080;-78
2021/04/12 05:00:29;;;;;;;6.80;3.83;;;5.30;98.90;;;;;;5094260;28;20079;-78
2021/04/12 05:03:19;;;;;;;5.32;3.67;;;5.30;99.40;;;;;;5093936;28;20075;-79
2021/04/12 05:06:29;;;;;;;5.72;3.70;;;5.30;99.30;;;;;;5093885;28;20091;-78
2021/04/12 05:09:25;;;;;;;6.50;4.10;;;5.30;99.80;;;;;;5050962;28;20052;-78
2021/04/12 05:12:35;;;;;;;6.25;3.95;;;5.30;99.50;;;;;;5093950;28;20080;-78
2021/04/12 05:15:57;;;;;;;5.47;3.70;;;5.40;99.40;;;;;;5094063;28;20478;-78
2021/04/12 05:18:42;;;;;;;6.78;4.30;;;5.40;99.70;;;;;;5094351;28;20506;-78
2021/04/12 05:21:32;;;;;;;5.68;3.95;;;5.40;99.70;;;;;;5093597;28;20094;-77
2021/04/12 05:24:28;;;;;;;5.47;3.90;;;5.40;99.60;;;;;;5093956;28;20064;-78
2021/04/12 05:27:38;;;;;;;5.70;3.83;;;5.50;99.50;;;;;;5090565;28;20127;-78
2021/04/12 05:30:55;;;;;;;5.80;4.10;;;5.50;99.40;;;;;;5093463;28;20568;-78
2021/04/12 05:33:43;;;;;;;6.40;4.43;;;5.50;98.60;;;;;;5087789;28;20056;-78
2021/04/12 05:36:36;;;;;;;7.13;4.05;;;5.40;99.00;;;;;;5093418;28;20087;-77
2021/04/12 05:39:43;;;;;;;6.43;4.20;;;5.30;99.20;;;;;;5093609;28;20071;-79
2021/04/12 05:42:35;;;;;;;6.10;3.97;;;5.30;99.60;;;;;;5092937;28;20105;-78
2021/04/12 05:45:47;;;;;;;7.25;4.43;;;5.40;99.40;;;;;;5093563;28;20490;-77
2021/04/12 05:48:33;;;;;;;5.95;3.92;;;5.40;99.30;;;;;;5093669;28;20079;-77
2021/04/12 05:51:34;;;;;;;6.13;4.10;;;5.30;99.10;;;;;;5093182;28;20048;-77
2021/04/12 05:54:46;;;;;;;6.97;4.25;;;5.30;99.40;;;;;;5067175;28;20505;-77
2021/04/12 05:57:34;;;;;;;7.10;4.32;;;5.40;99.70;;;;;;5093206;28;20122;-77
2021/04/12 06:00:24;;;;;;;7.88;4.35;;;5.30;99.50;;;;;;5093298;28;20076;-77
2021/04/12 06:03:34;;;;;;;6.00;4.20;;;5.30;99.40;;;;;;5093727;28;20052;-78
2021/04/12 06:06:26;;;;;;;6.28;3.80;;;5.30;99.00;;;;;;5092823;28;20553;-78
2021/04/12 06:09:23;;;;;;;5.43;3.70;;;5.20;99.20;;;;;;5093385;28;20048;-77
2021/04/12 06:12:31;;;;;;;6.25;4.03;;;5.10;99.40;;;;;;5082721;28;20398;-79
2021/04/12 06:15:48;;;;;;;5.57;3.70;;;5.10;99.50;;;;;;5093478;28;20497;-78
2021/04/12 06:18:37;;;;;;;6.35;4.30;;;5.10;99.50;;;;;;5011760;28;20086;-78
2021/04/12 06:21:47;;;;;;;6.00;3.92;;;5.10;99.60;;;;;;5093758;28;20555;-78
2021/04/12 06:24:44;;;;;;;5.82;3.83;;;5.00;99.70;;;;;;5084974;28;20474;-77
2021/04/12 06:28:05;;;;;;;5.88;3.97;;;4.90;99.70;;;;;;5092706;28;20490;-77
2021/04/12 06:30:47;;;;;;;4.85;3.35;;;4.90;99.80;;;;;;5092993;28;20302;-78
2021/04/12 06:33:38;;;;;;;6.30;4.38;;;5.00;99.90;;;;;;5093890;28;20086;-79
2021/04/12 06:36:47;;;;;;;5.15;3.55;;;4.90;99.80;;;;;;5097330;28;20087;-78
2021/04/12 06:39:43;;;;;;;5.47;3.50;;;4.90;99.90;;;;;;5097307;28;20072;-78
2021/04/12 06:43:22;;;;;;;6.30;4.03;;;4.90;99.90;;;;;;5096133;28;20460;-78
2021/04/12 06:46:42;;;;;;;6.03;4.22;;;5.00;99.90;;;;;;5096286;28;20051;-79
2021/04/12 06:49:58;;;;;;;6.47;4.20;;;4.90;99.90;;;;;;5096711;28;20097;-78
2021/04/12 06:53:13;;;;;;;6.10;3.97;;;4.90;99.90;;;;;;5063301;28;20125;-78
2021/04/12 06:56:43;;;;;;;6.18;4.50;;;4.80;99.90;;;;;;5096452;28;20131;-77
2021/04/12 07:00:16;;;;;;;6.65;4.32;;;4.70;99.80;;;;;;5096423;28;20521;-78
2021/04/12 07:03:46;;;;;;;5.95;3.90;;;4.70;99.90;;;;;;5096261;28;20139;-78
2021/04/12 07:06:45;;;;;;;6.50;4.60;;;4.60;99.90;;;;;;5096514;28;20067;-78
2021/04/12 07:09:50;;;;;;;6.03;4.22;;;4.80;99.90;;;;;;5105566;28;20080;-78
2021/04/12 07:13:09;;;;;;;6.63;4.72;;;4.80;99.90;;;;;;5096024;28;20127;-79
2021/04/12 07:16:28;;;;;;;6.35;4.38;;;4.90;99.90;;;;;;5096227;28;20083;-80
2021/04/12 07:19:42;;;;;;;6.85;4.60;;;4.90;99.90;;;;;;5095929;28;20524;-78
2021/04/12 07:22:51;;;;;;;6.38;4.28;;;5.00;99.90;;;;;;5089947;28;20044;-78
2021/04/12 07:25:56;;;;;;;7.78;5.13;;;4.90;99.90;;;;;;5095811;28;20083;-77
2021/04/12 07:29:32;;;;;;;7.75;4.88;;;5.00;99.90;;;;;;5095887;28;20094;-79
2021/04/12 07:32:43;;;;;;;7.60;5.60;;;5.00;99.90;;;;;;5013284;28;20141;-77
2021/04/12 07:36:05;;;;;;;8.13;4.97;;;5.00;99.90;;;;;;5013598;28;20056;-76
2021/04/12 07:39:15;;;;;;;7.53;5.15;;;5.10;99.90;;;;;;5095720;28;20516;-77
2021/04/12 07:42:24;;;;;;;8.55;5.00;;;5.20;99.90;;;;;;5095746;28;20094;-77
2021/04/12 07:45:55;;;;;;;7.72;5.10;;;5.30;99.90;;;;;;5095366;28;20486;-80
2021/04/12 07:49:28;;;;;;;7.68;5.00;;;5.30;99.90;;;;;;5095705;28;20044;-77
2021/04/12 07:52:45;;;;;;;7.75;5.28;;;5.40;99.90;;;;;;5095562;28;20137;-78
2021/04/12 07:56:16;;;;;;;6.88;4.72;;;5.60;99.90;;;;;;5095701;28;20083;-77
2021/04/12 07:59:38;;;;;;;7.43;5.07;;;5.70;99.90;;;;;;5095287;28;20132;-78
2021/04/12 08:02:57;;;;;;;7.22;4.43;;;5.90;99.90;;;;;;5095244;28;20676;-76
2021/04/12 08:06:06;;;;;;;7.10;5.00;;;6.00;99.90;;;;;;5095248;28;20084;-78
2021/04/12 08:08:57;;;;;;;6.85;5.00;;;6.10;99.60;;;;;;5012947;28;20092;-77
2021/04/12 08:12:13;;;;;;;8.85;5.40;;;6.00;98.70;;;;;;5013000;28;20046;-78
2021/04/12 08:16:02;;;;;;;7.10;4.85;;;6.00;98.60;;;;;;5095610;28;20083;-76
2021/04/12 08:18:57;;;;;;;7.00;5.28;;;5.90;99.50;;;;;;5013073;28;20085;-76
2021/04/12 08:22:16;;;;;;;8.85;5.85;;;5.90;99.40;;;;;;5012856;28;20120;-77
2021/04/12 08:25:42;;;;;;;8.38;5.47;;;5.90;99.00;;;;;;5094892;28;20090;-77
2021/04/12 08:28:55;;;;;;;10.43;6.25;;;5.80;99.30;;;;;;5047522;28;20123;-77
2021/04/12 08:32:14;;;;;;;9.38;5.95;;;5.80;99.60;;;;;;5094682;28;20070;-77
2021/04/12 08:35:33;;;;;;;10.35;6.13;;;5.80;99.40;;;;;;5094555;28;20076;-79
2021/04/12 08:38:43;;;;;;;9.60;6.70;;;5.70;99.60;;;;;;5094510;28;20046;-79
2021/04/12 08:41:46;;;;;;;12.13;7.32;;;5.60;99.40;;;;;;5094733;28;20147;-78
2021/04/12 08:44:56;;;;;;;13.25;8.80;;;5.50;99.90;;;;;;5094417;28;20044;-78
2021/04/12 08:48:13;;;;;;;13.48;9.07;;;5.60;99.50;;;;;;5094919;28;20054;-78
2021/04/12 08:51:27;;;;;;;17.73;10.32;;;5.50;99.40;;;;;;5094608;28;20287;-77
2021/04/12 08:55:00;;;;;;;13.77;9.23;;;5.50;99.60;;;;;;5094921;28;20072;-79
2021/04/12 08:57:58;;;;;;;12.77;8.93;;;5.60;99.90;;;;;;5093657;28;20044;-79
2021/04/12 09:01:24;;;;;;;14.88;10.00;;;5.80;99.90;;;;;;5077841;28;20080;-78
2021/04/12 09:04:37;;;;;;;14.10;9.35;;;5.90;99.40;;;;;;5095191;28;20147;-80
2021/04/12 09:07:32;;;;;;;12.52;9.27;;;6.10;99.40;;;;;;5064934;28;20052;-80
2021/04/12 09:10:35;;;;;;;15.68;10.43;;;6.20;97.30;;;;;;5094511;28;20052;-78
2021/04/12 09:13:52;;;;;;;14.70;9.33;;;6.20;97.10;;;;;;5093961;28;20048;-79
2021/04/12 09:16:29;;;;;;;13.57;9.18;;;6.10;98.40;;;;;;5091391;28;20130;-79
2021/04/12 09:19:53;;;;;;;15.18;10.10;;;6.20;98.50;;;;;;5094424;28;20087;-79
2021/04/12 09:23:15;;;;;;;11.02;8.02;;;6.30;96.90;;;;;;4995613;28;20052;-78
2021/04/12 09:26:27;;;;;;;11.98;8.77;;;6.20;97.50;;;;;;5011585;28;20132;-78
2021/04/12 09:29:24;;;;;;;13.65;8.98;;;6.10;96.60;;;;;;5093649;28;20071;-77
2021/04/12 09:32:51;;;;;;;11.85;7.88;;;6.10;95.70;;;;;;5094104;28;20106;-77
2021/04/12 09:35:51;;;;;;;12.35;8.55;;;6.10;96.50;;;;;;5094090;28;20128;-78
2021/04/12 09:39:02;;;;;;;12.48;8.25;;;6.20;96.50;;;;;;5087252;28;20077;-79
2021/04/12 09:42:16;;;;;;;13.82;8.05;;;6.20;96.00;;;;;;5084348;28;20080;-77
2021/04/12 09:45:38;;;;;;;11.70;8.05;;;6.30;96.20;;;;;;5078308;28;20192;-77
2021/04/12 09:48:57;;;;;;;10.80;7.43;;;6.30;95.70;;;;;;4991247;28;20056;-77
2021/04/12 09:52:19;;;;;;;10.80;7.65;;;6.40;95.60;;;;;;5054411;28;20135;-77
2021/04/12 09:55:44;;;;;;;11.68;6.85;;;6.40;94.90;;;;;;5073037;28;20189;-77
2021/04/12 09:58:57;;;;;;;11.98;7.88;;;6.40;95.20;;;;;;5074479;28;20044;-78
2021/04/12 10:01:48;;;;;;;10.60;7.30;;;6.50;94.90;;;;;;5072879;28;20075;-77
2021/04/12 10:04:50;;;;;;;12.25;7.15;;;6.50;95.50;;;;;;5073156;28;20466;-77
2021/04/12 10:07:51;;;;;;;10.18;6.60;;;6.70;93.90;;;;;;5073561;28;20063;-78
2021/04/12 10:10:21;;;;;;;11.82;7.13;;;6.60;94.50;;;;;;5051768;28;20102;-77
2021/04/12 10:13:10;;;;;;;9.68;6.35;;;6.70;93.70;;;;;;5059525;28;20081;-78
2021/04/12 10:15:55;;;;;;;9.55;5.78;;;6.60;93.60;;;;;;5077773;28;20102;-76
2021/04/12 10:18:34;;;;;;;10.15;6.15;;;6.60;94.20;;;;;;5076645;28;20084;-77
2021/04/12 10:21:17;;;;;;;12.20;6.53;;;6.60;93.70;;;;;;5077088;28;20119;-78
2021/04/12 10:23:50;;;;;;;9.38;6.03;;;6.70;93.10;;;;;;5077160;28;20076;-78
2021/04/12 10:26:24;;;;;;;8.80;6.00;;;6.80;93.20;;;;;;5076960;28;20075;-77
2021/04/12 10:29:03;;;;;;;10.20;6.10;;;6.80;93.80;;;;;;5076715;28;20099;-77
2021/04/12 10:31:34;;;;;;;10.35;5.70;;;6.90;93.00;;;;;;5076738;28;20098;-76
2021/04/12 10:34:27;;;;;;;7.03;4.70;;;6.80;93.50;;;;;;5059078;28;20044;-78
2021/04/12 10:37:05;;;;;;;8.60;5.53;;;7.00;94.30;;;;;;5074755;28;20079;-77
2021/04/12 10:39:40;;;;;;;8.80;5.25;;;6.90;93.70;;;;;;5060588;28;20088;-78
2021/04/12 10:42:23;;;;;;;7.60;4.90;;;7.20;92.40;;;;;;5076790;28;20100;-78
2021/04/12 10:45:03;;;;;;;8.05;4.65;;;7.10;92.80;;;;;;5076342;28;20752;-76
2021/04/12 10:47:41;;;;;;;7.07;4.22;;;7.10;92.10;;;;;;5077252;28;20095;-78
2021/04/12 10:50:16;;;;;;;5.65;3.58;;;7.10;92.30;;;;;;5075806;28;20083;-77
2021/04/12 10:53:03;;;;;;;6.38;4.15;;;7.10;92.30;;;;;;5076463;28;20044;-76
2021/04/12 10:55:36;;;;;;;6.13;3.95;;;7.20;91.00;;;;;;5076450;28;20068;-77
2021/04/12 10:58:43;;;;;;;6.70;3.97;;;7.30;88.80;;;;;;5076199;28;20119;-78
2021/04/12 11:01:14;;;;;;;7.60;3.90;;;7.20;88.90;;;;;;5088485;28;20126;-77
2021/04/12 11:03:48;;;;;;;6.93;4.13;;;7.20;90.00;;;;;;5096797;28;20127;-76
2021/04/12 11:06:47;;;;;;;6.88;3.42;;;7.20;89.30;;;;;;5096824;28;20133;-78
2021/04/12 11:09:33;;;;;;;6.30;3.67;;;7.20;90.90;;;;;;5096525;28;20139;-77
2021/04/12 11:12:11;;;;;;;5.97;3.20;;;7.20;90.20;;;;;;5096344;28;20052;-77
2021/04/12 11:14:50;;;;;;;6.50;3.20;;;7.30;84.70;;;;;;5096196;28;20083;-78
2021/04/12 11:17:31;;;;;;;8.18;3.55;;;7.40;83.90;;;;;;5077271;28;20485;-77
2021/04/12 11:20:06;;;;;;;5.00;3.13;;;7.20;84.90;;;;;;5076144;28;20086;-77
2021/04/12 11:22:58;;;;;;;4.95;3.25;;;7.30;86.60;;;;;;5086703;28;20052;-78
2021/04/12 11:25:38;;;;;;;5.40;3.20;;;7.30;87.10;;;;;;5078684;28;20079;-78
2021/04/12 11:28:36;;;;;;;5.82;3.35;;;7.40;85.80;;;;;;5065875;28;20178;-77
2021/04/12 11:31:32;;;;;;;6.97;3.58;;;7.50;84.80;;;;;;5068966;28;20084;-77
2021/04/12 11:34:16;;;;;;;5.55;3.05;;;7.50;82.80;;;;;;5075665;28;20139;-78
2021/04/12 11:37:01;;;;;;;7.00;3.00;;;7.50;84.70;;;;;;5090382;28;20121;-79
2021/04/12 11:39:29;;;;;;;;;;;7.40;85.40;;;;;;5097186;28;20121;-78
2021/04/12 11:42:00;;;;;;;5.88;2.50;;;7.60;82.60;;;;;;5097551;28;19977;-77
2021/04/12 11:44:36;;;;;;;5.25;2.60;;;7.60;77.20;;;;;;5096868;28;20082;-78
2021/04/12 11:47:27;;;;;;;5.25;2.60;;;7.70;79.60;;;;;;5095629;28;20127;-77
2021/04/12 11:50:14;;;;;;;7.28;2.60;;;7.80;79.20;;;;;;5092999;28;20172;-76
2021/04/12 11:52:54;;;;;;;5.40;2.45;;;7.90;77.50;;;;;;5073866;28;20056;-77
2021/04/12 11:55:30;;;;;;;4.85;2.53;;;7.80;76.40;;;;;;5072884;28;20056;-77
2021/04/12 11:58:07;;;;;;;4.78;2.80;;;7.70;76.30;;;;;;5072347;28;20465;-77
2021/04/12 12:00:45;;;;;;;5.47;2.90;;;7.70;78.20;;;;;;5072711;28;20098;-77
2021/04/12 12:03:35;;;;;;;5.43;2.60;;;7.70;77.40;;;;;;5072424;28;20057;-79
2021/04/12 12:06:13;;;;;;;5.10;2.25;;;7.70;77.10;;;;;;5084942;28;20079;-78
2021/04/12 12:08:54;;;;;;;7.45;2.47;;;7.60;79.50;;;;;;5092310;28;20458;-78
2021/04/12 12:11:33;;;;;;;4.60;2.30;;;7.60;80.50;;;;;;5092101;28;20450;-78
2021/04/12 12:14:17;;;;;;;4.88;2.72;;;7.60;80.60;;;;;;5092489;28;20098;-77
2021/04/12 12:16:44;;;;;;;5.78;2.50;;;7.70;80.20;;;;;;5074781;28;20539;-78
2021/04/12 12:19:29;;;;;;;4.70;2.10;;;7.80;78.30;;;;;;5073690;28;20044;-78
2021/04/12 12:22:06;;;;;;;4.97;2.00;;;7.90;76.20;;;;;;5072332;28;20049;-78
2021/04/12 12:24:43;;;;;;;4.35;1.95;;;7.90;73.40;;;;;;5071879;28;20084;-78
2021/04/12 12:27:18;;;;;;;3.80;2.15;;;7.90;74.70;;;;;;5073084;28;20094;-76
2021/04/12 12:29:52;;;;;;;5.63;2.30;;;8.00;74.20;;;;;;5072284;28;20087;-77
2021/04/12 12:32:54;;;;;;;3.80;1.95;;;8.30;72.90;;;;;;5070925;28;20052;-77
2021/04/12 12:35:34;;;;;;;4.75;2.30;;;8.30;75.50;;;;;;5072399;28;20131;-78
2021/04/12 12:38:46;;;;;;;4.53;2.15;;;8.60;73.30;;;;;;5071555;28;20045;-78
2021/04/12 12:41:17;;;;;;;4.13;2.03;;;8.70;68.20;;;;;;5071263;28;20087;-78
2021/04/12 12:43:45;;;;;;;5.32;2.35;;;8.80;66.80;;;;;;5071248;28;20076;-77
2021/04/12 12:46:15;;;;;;;4.25;1.92;;;8.80;67.30;;;;;;5071429;28;20461;-75
2021/04/12 12:48:49;;;;;;;4.32;2.20;;;8.70;67.90;;;;;;5071335;28;20064;-77
2021/04/12 12:51:20;;;;;;;4.15;2.00;;;8.80;67.90;;;;;;5071697;28;20131;-76
2021/04/12 12:53:51;;;;;;;4.57;2.10;;;8.70;67.10;;;;;;5070575;28;20071;-77
2021/04/12 12:56:24;;;;;;;6.40;2.45;;;8.80;66.00;;;;;;5071384;28;20079;-77
2021/04/12 12:58:58;;;;;;;4.63;2.40;;;8.70;63.10;;;;;;5071445;28;20445;-78
2021/04/12 13:01:33;;;;;;;5.68;2.28;;;8.60;64.40;;;;;;5071795;28;20536;-78
2021/04/12 13:04:13;;;;;;;4.47;2.25;;;8.50;64.40;;;;;;5075542;28;20127;-80
2021/04/12 13:06:42;;;;;;;4.55;2.05;;;8.40;64.50;;;;;;5091720;28;20413;-77
2021/04/12 13:09:29;;;;;;;3.85;2.13;;;8.50;65.70;;;;;;5091313;28;20486;-76
2021/04/12 13:12:10;;;;;;;4.65;2.17;;;8.30;66.00;;;;;;5073289;28;20048;-76
2021/04/12 13:14:40;;;;;;;4.47;1.77;;;8.50;66.10;;;;;;5090914;28;20167;-76
2021/04/12 13:17:26;;;;;;;4.72;1.70;;;8.40;67.50;;;;;;5091567;28;20126;-75
2021/04/12 13:19:57;;;;;;;4.53;2.13;;;8.70;68.00;;;;;;5076880;28;20049;-78
2021/04/12 13:22:30;;;;;;;4.85;2.53;;;8.80;65.30;;;;;;5088719;28;20081;-77
2021/04/12 13:25:23;;;;;;;8.85;5.13;;;8.90;65.20;;;;;;5075007;28;20048;-77
2021/04/12 13:27:56;;;;;;;5.35;2.40;;;8.90;66.80;;;;;;5090616;28;20126;-78
2021/04/12 13:30:25;;;;;;;5.75;2.63;;;8.80;68.30;;;;;;5091286;28;20131;-76
2021/04/12 13:32:58;;;;;;;5.25;2.40;;;8.80;68.40;;;;;;5089177;28;20129;-77
2021/04/12 13:35:30;;;;;;;3.85;2.30;;;8.70;67.40;;;;;;5076471;28;20055;-77
2021/04/12 13:38:07;;;;;;;4.90;2.30;;;8.80;67.80;;;;;;5069221;28;20049;-77
2021/04/12 13:40:43;;;;;;;5.35;2.75;;;8.70;68.50;;;;;;5069223;28;20056;-77
2021/04/12 13:43:13;;;;;;;3.60;1.85;;;8.90;65.90;;;;;;5069592;28;20048;-76
2021/04/12 13:45:42;;;;;;;5.38;2.00;;;9.00;61.90;;;;;;5070522;28;20080;-76
2021/04/12 13:48:19;;;;;;;3.60;1.88;;;9.10;62.50;;;;;;5069398;28;20067;-76
2021/04/12 13:50:54;;;;;;;4.60;2.00;;;9.10;64.20;;;;;;5087645;28;20520;-76
2021/04/12 13:53:33;;;;;;;4.03;1.70;;;9.30;63.10;;;;;;5090742;28;20478;-76
2021/04/12 13:56:09;;;;;;;4.28;1.80;;;9.40;61.80;;;;;;5090205;28;20371;-76
2021/04/12 13:58:40;;;;;;;6.88;2.10;;;9.70;63.00;;;;;;5090232;28;20178;-77
2021/04/12 14:01:12;;;;;;;5.38;2.33;;;9.90;59.50;;;;;;5089029;28;20508;-76
2021/04/12 14:03:56;;;;;;;5.00;1.88;;;10.00;58.50;;;;;;5087505;28;20090;-76
2021/04/12 14:06:27;;;;;;;4.85;2.00;;;10.40;62.90;;;;;;5069284;28;20190;-76
2021/04/12 14:09:01;;;;;;;4.80;2.20;;;10.70;57.50;;;;;;5070463;28;20044;-77
2021/04/12 14:11:34;;;;;;;4.35;1.80;;;10.70;54.00;;;;;;5069858;28;20146;-77
2021/04/12 14:14:14;;;;;;;3.72;2.00;;;10.60;56.60;;;;;;5069413;28;20378;-77
2021/04/12 14:16:41;;;;;;;6.55;3.28;;;10.70;56.60;;;;;;5069516;28;20127;-77
2021/04/12 14:19:15;;;;;;;4.00;1.77;;;10.80;57.50;;;;;;5070683;28;20529;-77
2021/04/12 14:21:46;;;;;;;5.63;1.90;;;11.10;54.70;;;;;;5090562;28;20079;-77
2021/04/12 14:24:21;;;;;;;4.78;1.75;;;11.30;54.10;;;;;;5090293;28;20044;-76
2021/04/12 14:26:53;;;;;;;4.20;1.50;;;11.50;56.00;;;;;;5090404;28;20488;-75
2021/04/12 14:29:27;;;;;;;4.13;1.58;;;11.70;52.10;;;;;;5090414;28;20127;-77
2021/04/12 14:31:55;;;;;;;4.13;1.45;;;11.70;53.60;;;;;;5090451;28;20143;-74
2021/04/12 14:34:31;;;;;;;3.97;1.50;;;11.70;51.80;;;;;;5084695;28;20052;-77
2021/04/12 14:37:05;;;;;;;3.20;1.10;;;11.30;50.50;;;;;;5070282;28;20143;-77
2021/04/12 14:39:33;;;;;;;4.47;1.80;;;11.00;49.90;;;;;;5069583;28;20072;-77
2021/04/12 14:42:04;;;;;;;3.35;1.10;;;10.70;49.50;;;;;;5070163;28;20044;-76
2021/04/12 14:44:38;;;;;;;2.60;1.10;;;10.30;49.10;;;;;;5068741;28;20123;-77
2021/04/12 14:47:14;;;;;;;4.05;1.30;;;10.00;50.40;;;;;;5068501;28;20135;-78
2021/04/12 14:49:46;;;;;;;3.08;1.05;;;9.70;52.40;;;;;;5078471;28;20446;-78
2021/04/12 14:52:37;;;;;;;4.18;1.27;;;9.60;53.60;;;;;;5088742;28;20090;-76
2021/04/12 14:55:09;;;;;;;3.97;1.10;;;9.40;53.90;;;;;;5087889;28;20074;-77
2021/04/12 14:57:39;;;;;;;3.97;1.40;;;9.30;55.70;;;;;;5086591;28;20502;-76
2021/04/12 15:00:22;;;;;;;4.80;1.38;;;9.10;56.60;;;;;;5073375;28;20052;-78
2021/04/12 15:02:59;;;;;;;4.32;1.30;;;8.90;58.00;;;;;;5072209;28;20413;-77
2021/04/12 15:05:38;;;;;;;4.82;1.30;;;8.70;57.70;;;;;;5072630;28;20136;-78